Airfield :
LOGIN :

Register | Disclaimer

   EN    FR    IT 

 










Legend :    VFR   Marginal VFR   IFR   Intensive IFR   Very Intensive IFR
Visi :
Ceiling :
>= 8 km
>= 3000ft
5 to 8 km
1000 to 3000 ft
1500m to 5 km
500 to 1000 ft
800 to 1500m
200 to 500 ft
< 800m
< 200 ft
Symbols :   Thunderstorms  Fog  Heavy snow  Heavy precipitations  Wind > 20 kt
SIGMETs :     Misc.  Thunderstorms  Icing  Turbulence  Mountain Waves  Volcanic Ashes







- Airport Elevation : 38 ft
- IATA code : TRE
- Download approach charts


EGPU - Tiree

CURRENT METAR :
  • 200920Z 16020KT 8000 OVC013 11/10 Q1013

EXPIRED METARs :
  • 200850Z 16021KT 9000 OVC012 11/10 Q1013
  • 200820Z 16021KT 7000 OVC013 10/10 Q1013
  • 200750Z 16023KT 7000 OVC012 11/10 Q1013
  • 200720Z AUTO 16022KT 7000 BKN011/// 10/10 Q1013 RERA
  • 200650Z AUTO 17022KT 6000 BKN010/// 10/10 Q1013 RERA

Expired Forecast.
No reported NOTAMs for that airfield.
1 SIGMET reported for the Scottish FIR (EGPX) :
 
Severe mountain waves
EGPX SIGMET 02 VALID 200600/201000 EGRR
EGPX SCOTTISH FIR SEV MTW FCST WI N5535 W00531 - N5735 W00621 - N5831 W00456 - N5931 W00247 - N5732 W00055 - N5559 W00325 - N5535 W00531 FL030/280 STNR WKN=



MET'MAP, your aeronautical weather chart ! - Copyright ORBIFLY December 2007 - Disclaimer

ORBIFLY MET'MAP TEAM :

Programming & Development : Alexandra Zaïnal
Concept & Development : Baudouin d'Aumeries
Co-Development & Prog : Marc-Olivier Méhu
Technical & hardware support : Manuel Goepfert

Contact : metmap@orbifly.com




SOURCES & CREDITS :

   NOAA